sensor_id;sensor_type;location;lat;lon;timestamp;temperature;humidity
66871;DHT22;53780;44.998;9.926;2022-07-12T00:00:31;23.36;61.73
66871;DHT22;53780;44.998;9.926;2022-07-12T00:03:35;23.30;62.00
66871;DHT22;53780;44.998;9.926;2022-07-12T00:06:38;23.23;62.34
66871;DHT22;53780;44.998;9.926;2022-07-12T00:09:42;23.14;62.50
66871;DHT22;53780;44.998;9.926;2022-07-12T00:12:46;23.10;62.67
66871;DHT22;53780;44.998;9.926;2022-07-12T00:15:50;23.09;62.73
66871;DHT22;53780;44.998;9.926;2022-07-12T00:18:54;23.05;62.90
66871;DHT22;53780;44.998;9.926;2022-07-12T00:21:57;23.09;62.67
66871;DHT22;53780;44.998;9.926;2022-07-12T00:25:02;23.02;62.92
66871;DHT22;53780;44.998;9.926;2022-07-12T00:28:06;22.98;63.09
66871;DHT22;53780;44.998;9.926;2022-07-12T00:31:10;22.93;63.33
66871;DHT22;53780;44.998;9.926;2022-07-12T00:34:14;22.91;63.52
66871;DHT22;53780;44.998;9.926;2022-07-12T00:37:18;22.89;63.85
66871;DHT22;53780;44.998;9.926;2022-07-12T00:40:23;22.86;64.02
66871;DHT22;53780;44.998;9.926;2022-07-12T00:43:27;22.85;64.19
66871;DHT22;53780;44.998;9.926;2022-07-12T00:46:31;22.78;64.62
66871;DHT22;53780;44.998;9.926;2022-07-12T00:49:36;22.73;64.68
66871;DHT22;53780;44.998;9.926;2022-07-12T00:52:40;22.68;64.93
66871;DHT22;53780;44.998;9.926;2022-07-12T00:55:44;22.61;65.25
66871;DHT22;53780;44.998;9.926;2022-07-12T00:58:48;22.55;65.41
66871;DHT22;53780;44.998;9.926;2022-07-12T01:01:52;22.49;65.65
66871;DHT22;53780;44.998;9.926;2022-07-12T01:04:56;22.49;65.89
66871;DHT22;53780;44.998;9.926;2022-07-12T01:08:01;22.47;65.90
66871;DHT22;53780;44.998;9.926;2022-07-12T01:11:05;22.45;66.17
66871;DHT22;53780;44.998;9.926;2022-07-12T01:14:10;22.43;66.36
66871;DHT22;53780;44.998;9.926;2022-07-12T01:17:14;22.41;66.55
66871;DHT22;53780;44.998;9.926;2022-07-12T01:20:18;22.38;66.67
66871;DHT22;53780;44.998;9.926;2022-07-12T01:23:23;22.33;66.92
66871;DHT22;53780;44.998;9.926;2022-07-12T01:26:28;22.31;67.03
66871;DHT22;53780;44.998;9.926;2022-07-12T01:29:32;22.34;67.07
66871;DHT22;53780;44.998;9.926;2022-07-12T01:32:36;22.38;67.15
66871;DHT22;53780;44.998;9.926;2022-07-12T01:35:40;22.37;67.09
66871;DHT22;53780;44.998;9.926;2022-07-12T01:38:45;22.38;67.14
66871;DHT22;53780;44.998;9.926;2022-07-12T01:41:49;22.37;67.20
66871;DHT22;53780;44.998;9.926;2022-07-12T01:44:53;22.36;67.15
66871;DHT22;53780;44.998;9.926;2022-07-12T01:47:58;22.34;67.25
66871;DHT22;53780;44.998;9.926;2022-07-12T01:51:02;22.27;67.21
66871;DHT22;53780;44.998;9.926;2022-07-12T01:54:06;22.21;67.41
66871;DHT22;53780;44.998;9.926;2022-07-12T01:57:11;22.14;67.43
66871;DHT22;53780;44.998;9.926;2022-07-12T02:00:16;22.16;67.46
66871;DHT22;53780;44.998;9.926;2022-07-12T02:03:20;22.14;67.47
66871;DHT22;53780;44.998;9.926;2022-07-12T02:06:24;22.16;67.60
66871;DHT22;53780;44.998;9.926;2022-07-12T02:09:29;22.11;67.69
66871;DHT22;53780;44.998;9.926;2022-07-12T02:12:33;22.06;67.81
66871;DHT22;53780;44.998;9.926;2022-07-12T02:15:37;22.07;67.90
66871;DHT22;53780;44.998;9.926;2022-07-12T02:18:41;22.02;68.13
66871;DHT22;53780;44.998;9.926;2022-07-12T02:21:44;21.99;68.42
66871;DHT22;53780;44.998;9.926;2022-07-12T02:24:48;21.90;68.71
66871;DHT22;53780;44.998;9.926;2022-07-12T02:27:53;21.81;68.99
66871;DHT22;53780;44.998;9.926;2022-07-12T02:30:57;21.81;69.16
66871;DHT22;53780;44.998;9.926;2022-07-12T02:34:01;21.82;69.03
66871;DHT22;53780;44.998;9.926;2022-07-12T02:37:05;21.79;69.03
66871;DHT22;53780;44.998;9.926;2022-07-12T02:40:09;21.69;69.24
66871;DHT22;53780;44.998;9.926;2022-07-12T02:43:33;21.76;69.17
66871;DHT22;53780;44.998;9.926;2022-07-12T02:46:37;21.81;69.05
66871;DHT22;53780;44.998;9.926;2022-07-12T02:49:41;21.72;69.30
66871;DHT22;53780;44.998;9.926;2022-07-12T02:52:45;21.59;69.71
66871;DHT22;53780;44.998;9.926;2022-07-12T02:55:48;21.66;69.57
66871;DHT22;53780;44.998;9.926;2022-07-12T02:58:52;21.71;69.50
66871;DHT22;53780;44.998;9.926;2022-07-12T03:01:56;21.73;69.55
66871;DHT22;53780;44.998;9.926;2022-07-12T03:05:01;21.55;69.99
66871;DHT22;53780;44.998;9.926;2022-07-12T03:08:06;21.62;69.88
66871;DHT22;53780;44.998;9.926;2022-07-12T03:11:10;21.62;69.94
66871;DHT22;53780;44.998;9.926;2022-07-12T03:14:14;21.56;70.17
66871;DHT22;53780;44.998;9.926;2022-07-12T03:17:18;21.59;70.21
66871;DHT22;53780;44.998;9.926;2022-07-12T03:20:22;21.56;70.38
66871;DHT22;53780;44.998;9.926;2022-07-12T03:23:26;21.51;70.55
66871;DHT22;53780;44.998;9.926;2022-07-12T03:26:30;21.52;70.63
66871;DHT22;53780;44.998;9.926;2022-07-12T03:29:33;21.47;70.59
66871;DHT22;53780;44.998;9.926;2022-07-12T03:32:38;21.49;70.67
66871;DHT22;53780;44.998;9.926;2022-07-12T03:35:41;21.49;70.52
66871;DHT22;53780;44.998;9.926;2022-07-12T03:38:45;21.48;70.54
66871;DHT22;53780;44.998;9.926;2022-07-12T03:41:49;21.39;70.97
66871;DHT22;53780;44.998;9.926;2022-07-12T03:44:53;21.28;71.41
66871;DHT22;53780;44.998;9.926;2022-07-12T03:47:57;21.37;71.10
66871;DHT22;53780;44.998;9.926;2022-07-12T03:51:01;21.42;70.82
66871;DHT22;53780;44.998;9.926;2022-07-12T03:54:08;21.35;71.29
66871;DHT22;53780;44.998;9.926;2022-07-12T03:57:12;21.31;71.46
66871;DHT22;53780;44.998;9.926;2022-07-12T04:00:19;21.30;71.45
66871;DHT22;53780;44.998;9.926;2022-07-12T04:03:23;21.23;71.74
66871;DHT22;53780;44.998;9.926;2022-07-12T04:06:27;21.18;71.82
66871;DHT22;53780;44.998;9.926;2022-07-12T04:09:30;21.24;71.84
66871;DHT22;53780;44.998;9.926;2022-07-12T04:12:34;21.37;71.58
66871;DHT22;53780;44.998;9.926;2022-07-12T04:15:38;21.51;71.32
66871;DHT22;53780;44.998;9.926;2022-07-12T04:18:42;21.62;70.79
66871;DHT22;53780;44.998;9.926;2022-07-12T04:21:46;21.69;70.41
66871;DHT22;53780;44.998;9.926;2022-07-12T04:24:50;21.61;71.24
66871;DHT22;53780;44.998;9.926;2022-07-12T04:27:54;21.63;70.66
66871;DHT22;53780;44.998;9.926;2022-07-12T04:30:59;21.67;70.48
66871;DHT22;53780;44.998;9.926;2022-07-12T04:34:05;21.76;70.27
66871;DHT22;53780;44.998;9.926;2022-07-12T04:37:09;21.78;70.34
66871;DHT22;53780;44.998;9.926;2022-07-12T04:40:13;21.86;70.17
66871;DHT22;53780;44.998;9.926;2022-07-12T04:43:17;21.89;69.90
66871;DHT22;53780;44.998;9.926;2022-07-12T04:46:21;21.96;70.01
66871;DHT22;53780;44.998;9.926;2022-07-12T04:49:24;22.10;69.42
66871;DHT22;53780;44.998;9.926;2022-07-12T04:52:28;22.07;69.40
66871;DHT22;53780;44.998;9.926;2022-07-12T04:55:32;21.97;69.69
66871;DHT22;53780;44.998;9.926;2022-07-12T04:58:36;22.07;69.82
66871;DHT22;53780;44.998;9.926;2022-07-12T05:01:40;22.18;69.44
66871;DHT22;53780;44.998;9.926;2022-07-12T05:04:44;22.18;70.17
66871;DHT22;53780;44.998;9.926;2022-07-12T05:07:48;22.31;69.51
66871;DHT22;53780;44.998;9.926;2022-07-12T05:10:52;22.44;69.18
66871;DHT22;53780;44.998;9.926;2022-07-12T05:13:56;22.43;68.58
66871;DHT22;53780;44.998;9.926;2022-07-12T05:17:00;22.44;68.62
66871;DHT22;53780;44.998;9.926;2022-07-12T05:20:04;22.44;68.83
66871;DHT22;53780;44.998;9.926;2022-07-12T05:23:09;22.40;68.82
66871;DHT22;53780;44.998;9.926;2022-07-12T05:26:13;22.48;69.30
66871;DHT22;53780;44.998;9.926;2022-07-12T05:29:16;22.61;68.63
66871;DHT22;53780;44.998;9.926;2022-07-12T05:32:20;22.72;68.40
66871;DHT22;53780;44.998;9.926;2022-07-12T05:35:24;22.85;68.04
66871;DHT22;53780;44.998;9.926;2022-07-12T05:38:28;22.96;67.60
66871;DHT22;53780;44.998;9.926;2022-07-12T05:41:32;23.05;67.46
66871;DHT22;53780;44.998;9.926;2022-07-12T05:44:36;23.16;67.63
66871;DHT22;53780;44.998;9.926;2022-07-12T05:47:40;23.17;67.10
66871;DHT22;53780;44.998;9.926;2022-07-12T05:50:44;23.10;67.26
66871;DHT22;53780;44.998;9.926;2022-07-12T05:53:48;23.03;67.32
66871;DHT22;53780;44.998;9.926;2022-07-12T05:56:51;23.05;67.29
66871;DHT22;53780;44.998;9.926;2022-07-12T05:59:55;23.03;67.55
66871;DHT22;53780;44.998;9.926;2022-07-12T06:02:59;23.12;67.29
66871;DHT22;53780;44.998;9.926;2022-07-12T06:06:03;22.89;68.03
66871;DHT22;53780;44.998;9.926;2022-07-12T06:09:07;22.93;67.90
66871;DHT22;53780;44.998;9.926;2022-07-12T06:12:10;22.99;68.10
66871;DHT22;53780;44.998;9.926;2022-07-12T06:15:14;23.07;68.05
66871;DHT22;53780;44.998;9.926;2022-07-12T06:18:18;23.27;67.20
66871;DHT22;53780;44.998;9.926;2022-07-12T06:21:22;23.46;66.82
66871;DHT22;53780;44.998;9.926;2022-07-12T06:24:25;23.54;66.01
66871;DHT22;53780;44.998;9.926;2022-07-12T06:27:29;23.36;66.50
66871;DHT22;53780;44.998;9.926;2022-07-12T06:30:33;23.16;67.10
66871;DHT22;53780;44.998;9.926;2022-07-12T06:33:37;23.23;67.20
66871;DHT22;53780;44.998;9.926;2022-07-12T06:36:41;23.37;67.16
66871;DHT22;53780;44.998;9.926;2022-07-12T06:39:47;23.50;66.98
66871;DHT22;53780;44.998;9.926;2022-07-12T06:42:51;23.60;66.57
66871;DHT22;53780;44.998;9.926;2022-07-12T06:45:55;23.68;65.89
66871;DHT22;53780;44.998;9.926;2022-07-12T06:48:59;23.81;65.83
66871;DHT22;53780;44.998;9.926;2022-07-12T06:52:03;23.81;65.48
66871;DHT22;53780;44.998;9.926;2022-07-12T06:55:08;23.75;65.87
66871;DHT22;53780;44.998;9.926;2022-07-12T06:58:12;23.90;65.05
66871;DHT22;53780;44.998;9.926;2022-07-12T07:01:16;24.09;64.41
66871;DHT22;53780;44.998;9.926;2022-07-12T07:04:20;24.63;63.17
66871;DHT22;53780;44.998;9.926;2022-07-12T07:07:25;25.05;61.44
66871;DHT22;53780;44.998;9.926;2022-07-12T07:10:29;25.35;60.83
66871;DHT22;53780;44.998;9.926;2022-07-12T07:13:33;25.71;59.56
66871;DHT22;53780;44.998;9.926;2022-07-12T07:16:38;25.98;58.94
66871;DHT22;53780;44.998;9.926;2022-07-12T07:19:42;26.55;57.87
66871;DHT22;53780;44.998;9.926;2022-07-12T07:22:47;26.90;56.47
66871;DHT22;53780;44.998;9.926;2022-07-12T07:25:51;26.49;56.18
66871;DHT22;53780;44.998;9.926;2022-07-12T07:28:55;26.88;56.23
66871;DHT22;53780;44.998;9.926;2022-07-12T07:32:18;26.63;56.93
66871;DHT22;53780;44.998;9.926;2022-07-12T07:35:23;26.53;56.99
66871;DHT22;53780;44.998;9.926;2022-07-12T07:38:27;26.45;57.48
66871;DHT22;53780;44.998;9.926;2022-07-12T07:41:32;26.59;57.02
66871;DHT22;53780;44.998;9.926;2022-07-12T07:44:35;25.85;57.45
66871;DHT22;53780;44.998;9.926;2022-07-12T07:47:47;25.85;58.62
66871;DHT22;53780;44.998;9.926;2022-07-12T07:50:52;25.88;57.92
66871;DHT22;53780;44.998;9.926;2022-07-12T07:53:56;25.69;58.90
66871;DHT22;53780;44.998;9.926;2022-07-12T07:57:00;25.77;58.50
66871;DHT22;53780;44.998;9.926;2022-07-12T08:00:04;26.05;58.40
66871;DHT22;53780;44.998;9.926;2022-07-12T08:03:15;26.50;57.41
66871;DHT22;53780;44.998;9.926;2022-07-12T08:06:19;26.79;56.50
66871;DHT22;53780;44.998;9.926;2022-07-12T08:09:22;26.93;56.21
66871;DHT22;53780;44.998;9.926;2022-07-12T08:12:26;27.15;55.40
66871;DHT22;53780;44.998;9.926;2022-07-12T08:15:31;27.35;55.59
66871;DHT22;53780;44.998;9.926;2022-07-12T08:18:35;27.41;54.76
66871;DHT22;53780;44.998;9.926;2022-07-12T08:21:38;27.50;54.59
66871;DHT22;53780;44.998;9.926;2022-07-12T08:24:42;26.17;58.34
66871;DHT22;53780;44.998;9.926;2022-07-12T08:27:46;26.87;56.76
66871;DHT22;53780;44.998;9.926;2022-07-12T08:30:50;27.85;55.41
66871;DHT22;53780;44.998;9.926;2022-07-12T08:33:53;28.31;53.45
66871;DHT22;53780;44.998;9.926;2022-07-12T08:36:58;28.32;53.81
66871;DHT22;53780;44.998;9.926;2022-07-12T08:40:02;28.88;52.22
66871;DHT22;53780;44.998;9.926;2022-07-12T08:43:07;28.90;52.17
66871;DHT22;53780;44.998;9.926;2022-07-12T08:46:12;29.17;51.54
66871;DHT22;53780;44.998;9.926;2022-07-12T08:49:16;29.45;50.28
66871;DHT22;53780;44.998;9.926;2022-07-12T08:52:25;29.82;49.78
66871;DHT22;53780;44.998;9.926;2022-07-12T08:55:34;30.20;48.97
66871;DHT22;53780;44.998;9.926;2022-07-12T08:58:38;29.85;49.52
66871;DHT22;53780;44.998;9.926;2022-07-12T09:01:53;29.71;49.67
66871;DHT22;53780;44.998;9.926;2022-07-12T09:05:07;29.79;49.68
66871;DHT22;53780;44.998;9.926;2022-07-12T09:08:10;30.38;48.29
66871;DHT22;53780;44.998;9.926;2022-07-12T09:11:15;30.31;49.38
66871;DHT22;53780;44.998;9.926;2022-07-12T09:14:20;30.30;48.40
66871;DHT22;53780;44.998;9.926;2022-07-12T09:17:24;29.44;50.00
66871;DHT22;53780;44.998;9.926;2022-07-12T09:20:32;29.76;48.99
66871;DHT22;53780;44.998;9.926;2022-07-12T09:23:36;29.65;50.14
66871;DHT22;53780;44.998;9.926;2022-07-12T09:26:40;29.71;49.23
66871;DHT22;53780;44.998;9.926;2022-07-12T09:29:48;29.04;50.55
66871;DHT22;53780;44.998;9.926;2022-07-12T09:33:00;29.44;50.11
66871;DHT22;53780;44.998;9.926;2022-07-12T09:36:25;29.71;50.00
66871;DHT22;53780;44.998;9.926;2022-07-12T09:39:29;29.71;48.92
66871;DHT22;53780;44.998;9.926;2022-07-12T09:42:34;30.00;48.09
66871;DHT22;53780;44.998;9.926;2022-07-12T09:45:39;30.27;47.84
66871;DHT22;53780;44.998;9.926;2022-07-12T09:48:46;30.34;47.21
66871;DHT22;53780;44.998;9.926;2022-07-12T09:51:56;30.05;49.04
66871;DHT22;53780;44.998;9.926;2022-07-12T09:55:01;30.06;48.15
66871;DHT22;53780;44.998;9.926;2022-07-12T09:58:07;30.37;48.46
66871;DHT22;53780;44.998;9.926;2022-07-12T10:01:16;31.06;46.26
66871;DHT22;53780;44.998;9.926;2022-07-12T10:04:23;31.58;44.11
66871;DHT22;53780;44.998;9.926;2022-07-12T10:07:27;31.06;47.05
66871;DHT22;53780;44.998;9.926;2022-07-12T10:10:31;31.61;44.67
66871;DHT22;53780;44.998;9.926;2022-07-12T10:13:37;31.33;44.98
66871;DHT22;53780;44.998;9.926;2022-07-12T10:16:44;31.27;45.52
66871;DHT22;53780;44.998;9.926;2022-07-12T10:19:49;31.34;45.47
66871;DHT22;53780;44.998;9.926;2022-07-12T10:26:25;30.85;45.75
66871;DHT22;53780;44.998;9.926;2022-07-12T10:29:30;30.72;44.96
66871;DHT22;53780;44.998;9.926;2022-07-12T10:32:35;31.12;45.99
66871;DHT22;53780;44.998;9.926;2022-07-12T10:35:39;31.37;45.33
66871;DHT22;53780;44.998;9.926;2022-07-12T10:39:11;30.72;48.65
66871;DHT22;53780;44.998;9.926;2022-07-12T10:42:19;31.25;47.31
66871;DHT22;53780;44.998;9.926;2022-07-12T10:45:23;32.25;44.85
66871;DHT22;53780;44.998;9.926;2022-07-12T10:48:27;32.80;43.52
66871;DHT22;53780;44.998;9.926;2022-07-12T10:51:31;33.00;42.53
66871;DHT22;53780;44.998;9.926;2022-07-12T10:54:47;33.10;42.01
66871;DHT22;53780;44.998;9.926;2022-07-12T10:57:53;33.25;41.68
66871;DHT22;53780;44.998;9.926;2022-07-12T11:00:59;33.43;41.38
66871;DHT22;53780;44.998;9.926;2022-07-12T11:04:05;33.25;41.84
66871;DHT22;53780;44.998;9.926;2022-07-12T11:07:10;32.67;42.82
66871;DHT22;53780;44.998;9.926;2022-07-12T11:10:14;32.33;42.64
66871;DHT22;53780;44.998;9.926;2022-07-12T11:13:24;32.18;43.39
66871;DHT22;53780;44.998;9.926;2022-07-12T11:16:29;32.70;42.40
66871;DHT22;53780;44.998;9.926;2022-07-12T11:19:34;32.71;42.30
66871;DHT22;53780;44.998;9.926;2022-07-12T11:22:42;32.84;44.49
66871;DHT22;53780;44.998;9.926;2022-07-12T11:25:45;32.36;43.37
66871;DHT22;53780;44.998;9.926;2022-07-12T11:28:49;32.49;43.19
66871;DHT22;53780;44.998;9.926;2022-07-12T11:32:04;32.15;43.38
66871;DHT22;53780;44.998;9.926;2022-07-12T11:35:18;32.23;42.73
66871;DHT22;53780;44.998;9.926;2022-07-12T11:38:25;32.63;43.61
66871;DHT22;53780;44.998;9.926;2022-07-12T11:41:29;33.22;42.44
66871;DHT22;53780;44.998;9.926;2022-07-12T11:44:50;33.65;40.84
66871;DHT22;53780;44.998;9.926;2022-07-12T11:47:59;33.59;40.40
66871;DHT22;53780;44.998;9.926;2022-07-12T11:51:06;33.63;41.23
66871;DHT22;53780;44.998;9.926;2022-07-12T11:54:09;33.35;41.16
66871;DHT22;53780;44.998;9.926;2022-07-12T11:57:14;33.18;40.90
66871;DHT22;53780;44.998;9.926;2022-07-12T12:00:20;32.80;41.17
66871;DHT22;53780;44.998;9.926;2022-07-12T12:03:25;31.64;43.33
66871;DHT22;53780;44.998;9.926;2022-07-12T12:06:30;31.91;43.07
66871;DHT22;53780;44.998;9.926;2022-07-12T12:13:14;32.21;41.85
66871;DHT22;53780;44.998;9.926;2022-07-12T12:16:19;32.29;42.21
66871;DHT22;53780;44.998;9.926;2022-07-12T12:19:23;32.19;42.95
66871;DHT22;53780;44.998;9.926;2022-07-12T12:22:37;31.92;42.96
66871;DHT22;53780;44.998;9.926;2022-07-12T12:25:41;31.43;44.02
66871;DHT22;53780;44.998;9.926;2022-07-12T12:31:57;31.41;44.48
66871;DHT22;53780;44.998;9.926;2022-07-12T12:35:11;31.44;45.16
66871;DHT22;53780;44.998;9.926;2022-07-12T12:38:15;31.02;44.74
66871;DHT22;53780;44.998;9.926;2022-07-12T12:41:21;30.98;44.39
66871;DHT22;53780;44.998;9.926;2022-07-12T12:44:28;31.12;44.10
66871;DHT22;53780;44.998;9.926;2022-07-12T12:47:52;31.11;44.49
66871;DHT22;53780;44.998;9.926;2022-07-12T12:51:10;30.57;45.42
66871;DHT22;53780;44.998;9.926;2022-07-12T12:54:15;30.81;44.45
66871;DHT22;53780;44.998;9.926;2022-07-12T12:57:19;31.15;45.15
66871;DHT22;53780;44.998;9.926;2022-07-12T13:00:23;31.23;43.83
66871;DHT22;53780;44.998;9.926;2022-07-12T13:03:27;31.33;44.40
66871;DHT22;53780;44.998;9.926;2022-07-12T13:06:30;31.25;43.89
66871;DHT22;53780;44.998;9.926;2022-07-12T13:09:35;31.26;43.80
66871;DHT22;53780;44.998;9.926;2022-07-12T13:12:39;30.67;45.11
66871;DHT22;53780;44.998;9.926;2022-07-12T13:15:43;30.65;45.23
66871;DHT22;53780;44.998;9.926;2022-07-12T13:18:47;30.82;44.72
66871;DHT22;53780;44.998;9.926;2022-07-12T13:21:51;30.79;44.06
66871;DHT22;53780;44.998;9.926;2022-07-12T13:24:56;30.85;43.79
66871;DHT22;53780;44.998;9.926;2022-07-12T13:28:00;30.89;44.03
66871;DHT22;53780;44.998;9.926;2022-07-12T13:31:04;30.95;44.47
66871;DHT22;53780;44.998;9.926;2022-07-12T13:34:08;31.11;43.82
66871;DHT22;53780;44.998;9.926;2022-07-12T13:37:12;31.19;43.48
66871;DHT22;53780;44.998;9.926;2022-07-12T13:40:15;31.16;43.72
66871;DHT22;53780;44.998;9.926;2022-07-12T13:43:24;31.15;43.45
66871;DHT22;53780;44.998;9.926;2022-07-12T13:46:29;31.00;44.18
66871;DHT22;53780;44.998;9.926;2022-07-12T13:49:32;31.00;44.16
66871;DHT22;53780;44.998;9.926;2022-07-12T13:52:37;31.05;44.45
66871;DHT22;53780;44.998;9.926;2022-07-12T13:55:43;31.18;44.88
66871;DHT22;53780;44.998;9.926;2022-07-12T13:58:47;31.27;44.36
66871;DHT22;53780;44.998;9.926;2022-07-12T14:01:52;31.37;43.60
66871;DHT22;53780;44.998;9.926;2022-07-12T14:04:55;31.33;43.30
66871;DHT22;53780;44.998;9.926;2022-07-12T14:08:00;31.27;42.83
66871;DHT22;53780;44.998;9.926;2022-07-12T14:11:04;31.29;43.04
66871;DHT22;53780;44.998;9.926;2022-07-12T14:14:07;31.29;42.91
66871;DHT22;53780;44.998;9.926;2022-07-12T14:17:12;31.29;43.29
66871;DHT22;53780;44.998;9.926;2022-07-12T14:20:21;31.16;42.89
66871;DHT22;53780;44.998;9.926;2022-07-12T14:23:25;31.23;43.87
66871;DHT22;53780;44.998;9.926;2022-07-12T14:26:29;31.31;43.42
66871;DHT22;53780;44.998;9.926;2022-07-12T14:29:33;31.33;42.77
66871;DHT22;53780;44.998;9.926;2022-07-12T14:32:38;31.36;43.02
66871;DHT22;53780;44.998;9.926;2022-07-12T14:35:42;31.16;43.60
66871;DHT22;53780;44.998;9.926;2022-07-12T14:38:46;31.26;43.40
66871;DHT22;53780;44.998;9.926;2022-07-12T14:41:50;31.29;43.21
66871;DHT22;53780;44.998;9.926;2022-07-12T14:44:54;31.33;43.66
66871;DHT22;53780;44.998;9.926;2022-07-12T14:47:58;31.40;43.47
66871;DHT22;53780;44.998;9.926;2022-07-12T14:51:02;31.31;42.42
66871;DHT22;53780;44.998;9.926;2022-07-12T14:54:06;31.34;42.67
66871;DHT22;53780;44.998;9.926;2022-07-12T14:57:10;31.20;43.37
66871;DHT22;53780;44.998;9.926;2022-07-12T15:00:14;31.33;43.62
66871;DHT22;53780;44.998;9.926;2022-07-12T15:03:18;31.06;43.30
66871;DHT22;53780;44.998;9.926;2022-07-12T15:06:22;31.11;43.86
66871;DHT22;53780;44.998;9.926;2022-07-12T15:09:26;31.12;43.77
66871;DHT22;53780;44.998;9.926;2022-07-12T15:12:31;31.23;43.47
66871;DHT22;53780;44.998;9.926;2022-07-12T15:15:35;31.33;43.57
66871;DHT22;53780;44.998;9.926;2022-07-12T15:18:40;31.36;43.06
66871;DHT22;53780;44.998;9.926;2022-07-12T15:21:44;31.33;43.23
66871;DHT22;53780;44.998;9.926;2022-07-12T15:24:48;31.26;42.89
66871;DHT22;53780;44.998;9.926;2022-07-12T15:27:52;31.23;43.41
66871;DHT22;53780;44.998;9.926;2022-07-12T15:30:56;31.25;42.92
66871;DHT22;53780;44.998;9.926;2022-07-12T15:34:01;31.22;42.40
66871;DHT22;53780;44.998;9.926;2022-07-12T15:37:05;31.19;43.21
66871;DHT22;53780;44.998;9.926;2022-07-12T15:40:09;31.22;43.58
66871;DHT22;53780;44.998;9.926;2022-07-12T15:43:13;31.30;43.53
66871;DHT22;53780;44.998;9.926;2022-07-12T15:46:17;31.30;43.62
66871;DHT22;53780;44.998;9.926;2022-07-12T15:49:22;31.39;43.26
66871;DHT22;53780;44.998;9.926;2022-07-12T15:52:25;31.40;43.33
66871;DHT22;53780;44.998;9.926;2022-07-12T15:55:48;31.37;42.97
66871;DHT22;53780;44.998;9.926;2022-07-12T15:58:52;31.27;42.84
66871;DHT22;53780;44.998;9.926;2022-07-12T16:01:57;31.27;43.58
66871;DHT22;53780;44.998;9.926;2022-07-12T16:05:02;31.30;43.82
66871;DHT22;53780;44.998;9.926;2022-07-12T16:08:07;31.31;44.12
66871;DHT22;53780;44.998;9.926;2022-07-12T16:11:10;31.30;43.57
66871;DHT22;53780;44.998;9.926;2022-07-12T16:14:15;31.26;43.91
66871;DHT22;53780;44.998;9.926;2022-07-12T16:17:20;31.20;43.91
66871;DHT22;53780;44.998;9.926;2022-07-12T16:20:24;31.22;45.33
66871;DHT22;53780;44.998;9.926;2022-07-12T16:23:28;31.20;46.03
66871;DHT22;53780;44.998;9.926;2022-07-12T16:26:32;31.23;45.03
66871;DHT22;53780;44.998;9.926;2022-07-12T16:29:37;31.23;44.12
66871;DHT22;53780;44.998;9.926;2022-07-12T16:32:41;31.18;45.87
66871;DHT22;53780;44.998;9.926;2022-07-12T16:35:45;31.13;45.74
66871;DHT22;53780;44.998;9.926;2022-07-12T16:38:49;31.16;46.15
66871;DHT22;53780;44.998;9.926;2022-07-12T16:41:53;31.13;46.24
66871;DHT22;53780;44.998;9.926;2022-07-12T16:44:57;31.16;45.99
66871;DHT22;53780;44.998;9.926;2022-07-12T16:48:01;31.13;45.96
66871;DHT22;53780;44.998;9.926;2022-07-12T16:51:04;31.18;46.43
66871;DHT22;53780;44.998;9.926;2022-07-12T16:54:26;31.19;45.77
66871;DHT22;53780;44.998;9.926;2022-07-12T16:57:31;31.15;45.89
66871;DHT22;53780;44.998;9.926;2022-07-12T17:00:35;31.12;45.91
66871;DHT22;53780;44.998;9.926;2022-07-12T17:03:39;31.12;46.21
66871;DHT22;53780;44.998;9.926;2022-07-12T17:06:43;31.11;46.69
66871;DHT22;53780;44.998;9.926;2022-07-12T17:09:47;31.00;46.26
66871;DHT22;53780;44.998;9.926;2022-07-12T17:12:51;30.95;46.06
66871;DHT22;53780;44.998;9.926;2022-07-12T17:15:55;30.88;46.44
66871;DHT22;53780;44.998;9.926;2022-07-12T17:18:59;30.86;46.32
66871;DHT22;53780;44.998;9.926;2022-07-12T17:22:09;30.75;46.77
66871;DHT22;53780;44.998;9.926;2022-07-12T17:25:14;30.74;47.16
66871;DHT22;53780;44.998;9.926;2022-07-12T17:28:18;30.72;47.34
66871;DHT22;53780;44.998;9.926;2022-07-12T17:31:22;30.72;47.09
66871;DHT22;53780;44.998;9.926;2022-07-12T17:34:28;30.67;47.41
66871;DHT22;53780;44.998;9.926;2022-07-12T17:37:34;30.64;47.74
66871;DHT22;53780;44.998;9.926;2022-07-12T17:40:38;30.60;48.03
66871;DHT22;53780;44.998;9.926;2022-07-12T17:43:42;30.51;48.55
66871;DHT22;53780;44.998;9.926;2022-07-12T17:46:47;30.55;48.11
66871;DHT22;53780;44.998;9.926;2022-07-12T17:49:51;30.43;48.29
66871;DHT22;53780;44.998;9.926;2022-07-12T17:52:55;30.30;48.63
66871;DHT22;53780;44.998;9.926;2022-07-12T17:55:59;30.28;48.73
66871;DHT22;53780;44.998;9.926;2022-07-12T17:59:03;30.24;48.98
66871;DHT22;53780;44.998;9.926;2022-07-12T18:02:07;30.13;49.15
66871;DHT22;53780;44.998;9.926;2022-07-12T18:05:11;30.05;49.24
66871;DHT22;53780;44.998;9.926;2022-07-12T18:08:15;30.03;49.56
66871;DHT22;53780;44.998;9.926;2022-07-12T18:11:19;29.92;49.66
66871;DHT22;53780;44.998;9.926;2022-07-12T18:14:41;29.83;50.30
66871;DHT22;53780;44.998;9.926;2022-07-12T18:17:49;29.82;50.18
66871;DHT22;53780;44.998;9.926;2022-07-12T18:21:05;29.76;50.27
66871;DHT22;53780;44.998;9.926;2022-07-12T18:24:10;29.64;50.61
66871;DHT22;53780;44.998;9.926;2022-07-12T18:27:14;29.58;51.08
66871;DHT22;53780;44.998;9.926;2022-07-12T18:30:20;29.47;50.97
66871;DHT22;53780;44.998;9.926;2022-07-12T18:33:24;29.44;51.23
66871;DHT22;53780;44.998;9.926;2022-07-12T18:36:29;29.35;51.51
66871;DHT22;53780;44.998;9.926;2022-07-12T18:39:32;29.27;51.80
66871;DHT22;53780;44.998;9.926;2022-07-12T18:42:36;29.18;52.14
66871;DHT22;53780;44.998;9.926;2022-07-12T18:45:41;29.08;52.49
66871;DHT22;53780;44.998;9.926;2022-07-12T18:48:46;29.02;52.53
66871;DHT22;53780;44.998;9.926;2022-07-12T18:51:50;28.96;52.77
66871;DHT22;53780;44.998;9.926;2022-07-12T18:54:54;28.88;53.07
66871;DHT22;53780;44.998;9.926;2022-07-12T18:57:58;28.82;53.14
66871;DHT22;53780;44.998;9.926;2022-07-12T19:01:02;28.75;53.25
66871;DHT22;53780;44.998;9.926;2022-07-12T19:04:07;28.70;53.33
66871;DHT22;53780;44.998;9.926;2022-07-12T19:07:10;28.65;53.49
66871;DHT22;53780;44.998;9.926;2022-07-12T19:10:14;28.61;53.37
66871;DHT22;53780;44.998;9.926;2022-07-12T19:13:18;28.56;53.52
66871;DHT22;53780;44.998;9.926;2022-07-12T19:16:23;28.45;53.63
66871;DHT22;53780;44.998;9.926;2022-07-12T19:19:27;28.42;53.68
66871;DHT22;53780;44.998;9.926;2022-07-12T19:22:31;28.41;53.83
66871;DHT22;53780;44.998;9.926;2022-07-12T19:25:35;28.38;53.80
66871;DHT22;53780;44.998;9.926;2022-07-12T19:28:39;28.31;54.01
66871;DHT22;53780;44.998;9.926;2022-07-12T19:31:43;28.27;54.20
66871;DHT22;53780;44.998;9.926;2022-07-12T19:34:47;28.24;54.23
66871;DHT22;53780;44.998;9.926;2022-07-12T19:37:51;28.18;54.03